Terminal Aerodrome Forecast
Issued by NWS

Current Version | Previous Version | Graphics & Text | Print | Product List | Glossary On
Versions: 1 2 3 4 5 6 7 8 9 10 11 12 13 14 15 16 17 18 19 20 21 22 23 24 25 26 27 28 29 30 31 32 33 34 35 36 37 38 39 40 41 42 43 44 45 46 47 48 49
000
FTUS41 KRNK 020340 AAB
TAFLWB
TAF AMD
KLWB 020340Z 0204/0224 00000KT 3SM BR VCSH SCT050 OVC070
     FM020600 00000KT 2SM -SHRA BR SCT007 OVC040
     FM021400 00000KT 5SM HZ VCSH OVC040
     FM021800 VRB03KT 6SM -SHRA BR BKN015
     FM022100 25005KT 6SM -SHRA VCTS SCT018 OVC022CB=

USA.gov is the U.S. government's official web portal to all federal, state and local government web resources and services.